Time;durP1;ratioP1;P1;durP2;ratioP2;P2;SDS_P1;SDS_P2;PMS_P1;PMS_P2;Temp;Humidity;BMP_temperature;BMP_pressure;BME280_temperature;BME280_humidity;BME280_pressure;Samples;Min_cycle;Max_cycle;Signal;HPM_P1;HPM_P2
2023/02/16 00:00:58;;;;;;;50.53;33.03;;;3.40;99.90;;;;;;5055414;28;20455;-71
2023/02/16 00:03:25;;;;;;;48.00;32.60;;;3.50;99.90;;;;;;5055385;28;20926;-72
2023/02/16 00:05:52;;;;;;;48.03;32.23;;;3.50;99.90;;;;;;5049525;28;20491;-71
2023/02/16 00:08:20;;;;;;;54.00;33.40;;;3.40;99.90;;;;;;5053540;28;20498;-70
2023/02/16 00:13:46;;;;;;;54.67;34.17;;;3.40;99.90;;;;;;5057033;28;20479;-71
2023/02/16 00:16:15;;;;;;;43.00;30.50;;;3.30;99.90;;;;;;5050979;28;20478;-70
2023/02/16 00:18:42;;;;;;;52.47;32.70;;;3.20;99.90;;;;;;5058383;28;20493;-69
2023/02/16 00:21:09;;;;;;;48.87;33.17;;;3.20;99.90;;;;;;5051933;28;20479;-69
2023/02/16 00:23:38;;;;;;;54.83;33.30;;;3.30;99.90;;;;;;5056710;28;21083;-69
2023/02/16 00:26:05;;;;;;;49.30;32.23;;;3.20;99.90;;;;;;5052755;28;20546;-71
2023/02/16 00:28:32;;;;;;;47.47;33.20;;;3.20;99.90;;;;;;5061173;28;20802;-69
2023/02/16 00:30:59;;;;;;;52.00;34.60;;;3.30;99.90;;;;;;5053132;28;20464;-68
2023/02/16 00:33:26;;;;;;;51.00;33.40;;;3.30;99.90;;;;;;5053187;28;20975;-70
2023/02/16 00:35:54;;;;;;;50.57;34.23;;;3.30;99.90;;;;;;5053162;28;20544;-70
2023/02/16 00:38:21;;;;;;;48.57;31.57;;;3.30;99.90;;;;;;5054877;28;20482;-69
2023/02/16 00:40:49;;;;;;;51.83;32.30;;;3.20;99.90;;;;;;5057151;28;20467;-70
2023/02/16 00:43:24;;;;;;;64.30;33.30;;;3.20;99.90;;;;;;5055372;28;20545;-71
2023/02/16 00:45:51;;;;;;;39.47;32.07;;;3.10;99.90;;;;;;5053571;28;20844;-70
2023/02/16 00:48:19;;;;;;;57.67;33.97;;;3.10;99.90;;;;;;5058262;28;20570;-70
2023/02/16 00:50:45;;;;;;;75.53;33.50;;;3.00;99.90;;;;;;5056757;28;20463;-70
2023/02/16 00:53:12;;;;;;;49.87;36.60;;;3.00;99.90;;;;;;5053777;28;20459;-70
2023/02/16 00:55:40;;;;;;;54.77;32.63;;;3.00;99.90;;;;;;5055093;28;20459;-70
2023/02/16 00:58:14;;;;;;;54.87;32.37;;;3.00;99.90;;;;;;5053685;28;20464;-72
2023/02/16 01:00:42;;;;;;;56.80;35.20;;;3.00;99.90;;;;;;5053356;28;20868;-73
2023/02/16 01:03:14;;;;;;;51.90;34.17;;;3.00;99.90;;;;;;5043108;28;20835;-70
2023/02/16 01:05:41;;;;;;;58.33;34.93;;;3.10;99.90;;;;;;5049883;28;20648;-71
2023/02/16 01:11:09;;;;;;;47.37;32.43;;;3.30;99.90;;;;;;4994448;28;20490;-69
2023/02/16 01:13:42;;;;;;;39.10;32.70;;;3.20;99.90;;;;;;5041560;28;21373;-70
2023/02/16 01:16:17;;;;;;;49.30;34.80;;;3.20;99.90;;;;;;5058306;28;20549;-69
2023/02/16 01:18:44;;;;;;;57.73;32.80;;;3.20;99.90;;;;;;5053646;28;20470;-69
2023/02/16 01:21:11;;;;;;;47.40;33.97;;;3.10;99.90;;;;;;5056749;28;20982;-71
2023/02/16 01:23:38;;;;;;;48.90;34.60;;;3.00;99.90;;;;;;5053307;28;20467;-71
2023/02/16 01:26:06;;;;;;;40.30;32.87;;;3.00;99.90;;;;;;5055372;28;20471;-71
2023/02/16 01:28:35;;;;;;;41.20;33.47;;;3.00;99.90;;;;;;5053574;28;20495;-70
2023/02/16 01:31:04;;;;;;;49.33;32.73;;;2.90;99.90;;;;;;5047260;28;20571;-70
2023/02/16 01:33:31;;;;;;;40.60;33.73;;;2.80;99.90;;;;;;5055192;28;20468;-71
2023/02/16 01:35:58;;;;;;;49.40;33.87;;;2.80;99.90;;;;;;5051639;28;20463;-69
2023/02/16 01:38:27;;;;;;;52.30;33.00;;;2.80;99.90;;;;;;5055202;28;20565;-70
2023/02/16 01:41:04;;;;;;;43.40;35.00;;;2.90;99.90;;;;;;5053874;28;20458;-72
2023/02/16 01:43:39;;;;;;;42.10;33.37;;;3.00;99.90;;;;;;5056555;28;20470;-72
2023/02/16 01:46:14;;;;;;;41.70;32.03;;;3.00;99.90;;;;;;5051127;28;20466;-70
2023/02/16 01:48:41;;;;;;;46.77;34.17;;;3.00;99.90;;;;;;5061221;28;20478;-70
2023/02/16 01:51:20;;;;;;;42.30;32.00;;;2.90;99.90;;;;;;5053900;28;20479;-69
2023/02/16 01:53:51;;;;;;;44.00;33.40;;;2.70;99.90;;;;;;5055938;28;20577;-70
2023/02/16 01:56:27;;;;;;;38.47;31.90;;;2.60;99.90;;;;;;5060102;28;20585;-71
2023/02/16 01:59:00;;;;;;;49.53;31.20;;;2.70;99.90;;;;;;5053898;28;20467;-70
2023/02/16 02:01:41;;;;;;;42.13;32.30;;;2.70;99.90;;;;;;5058125;28;20558;-71
2023/02/16 02:07:24;;;;;;;39.67;32.63;;;2.60;99.90;;;;;;4999596;28;20541;-69
2023/02/16 02:09:59;;;;;;;46.00;32.93;;;2.70;99.90;;;;;;5059183;28;20906;-70
2023/02/16 02:12:32;;;;;;;41.87;33.67;;;2.70;99.90;;;;;;5055785;28;20463;-70
2023/02/16 02:14:59;;;;;;;43.33;32.63;;;2.70;99.90;;;;;;5053924;28;20487;-72
2023/02/16 02:17:28;;;;;;;44.13;32.87;;;2.70;99.90;;;;;;5058618;28;20478;-70
2023/02/16 02:20:02;;;;;;;44.57;34.07;;;2.70;99.90;;;;;;5059963;28;20455;-71
2023/02/16 02:26:35;;;;;;;47.23;31.20;;;2.50;99.90;;;;;;5007597;28;20478;-72
2023/02/16 02:29:17;;;;;;;41.97;32.60;;;2.40;99.90;;;;;;5057133;28;20501;-71
2023/02/16 02:31:56;;;;;;;49.30;32.27;;;2.30;99.90;;;;;;5055650;28;20501;-69
2023/02/16 02:34:32;;;;;;;44.30;33.23;;;2.20;99.90;;;;;;5057144;28;20491;-73
2023/02/16 02:37:07;;;;;;;42.67;32.73;;;2.20;99.90;;;;;;5052275;28;20467;-69
2023/02/16 02:39:46;;;;;;;44.07;33.43;;;2.20;99.90;;;;;;5059378;28;20470;-72
2023/02/16 02:42:19;;;;;;;40.53;32.03;;;2.20;99.90;;;;;;5052214;28;20491;-71
2023/02/16 02:44:52;;;;;;;41.27;33.40;;;2.20;99.90;;;;;;5054278;28;20461;-72
2023/02/16 02:47:18;;;;;;;42.47;31.20;;;2.20;99.90;;;;;;5059882;28;20447;-70
2023/02/16 02:49:51;;;;;;;42.50;32.73;;;2.10;99.90;;;;;;5055403;28;20644;-72
2023/02/16 02:52:18;;;;;;;36.17;31.40;;;2.00;99.90;;;;;;5054743;28;20467;-71
2023/02/16 03:00:43;;;;;;;42.30;32.30;;;2.00;99.90;;;;;;5058350;28;20704;-72
2023/02/16 03:03:14;;;;;;;40.40;30.97;;;2.00;99.90;;;;;;5054474;28;20470;-71
2023/02/16 03:05:45;;;;;;;36.57;31.00;;;1.90;99.90;;;;;;5054146;28;20986;-72
2023/02/16 03:08:17;;;;;;;36.50;32.40;;;1.90;99.90;;;;;;5057442;28;20812;-73
2023/02/16 03:13:37;;;;;;;43.70;32.67;;;1.90;99.90;;;;;;5059070;28;21127;-70
2023/02/16 03:16:08;;;;;;;43.67;33.17;;;1.90;99.90;;;;;;5060448;28;20455;-73
2023/02/16 03:29:40;;;;;;;47.80;34.20;;;2.10;99.90;;;;;;5053984;28;20506;-72
2023/02/16 03:32:07;;;;;;;44.53;32.97;;;2.20;99.90;;;;;;5058895;28;20458;-71
2023/02/16 03:34:36;;;;;;;45.57;34.33;;;2.20;99.90;;;;;;5060618;28;20462;-71
2023/02/16 03:37:04;;;;;;;50.27;35.63;;;2.30;99.90;;;;;;5061131;28;21132;-72
2023/02/16 03:40:26;;;;;;;42.10;32.70;;;2.40;99.90;;;;;;5056967;28;20964;-73
2023/02/16 03:42:20;;;;;;;62.43;34.47;;;2.60;99.90;;;;;;5055140;28;20981;-71
2023/02/16 03:44:49;;;;;;;53.50;35.20;;;2.60;99.90;;;;;;5056298;28;21021;-71
2023/02/16 03:47:16;;;;;;;45.27;33.93;;;2.60;99.90;;;;;;5057916;28;20460;-72
2023/02/16 03:49:42;;;;;;;48.70;33.03;;;2.60;99.90;;;;;;5053522;28;20836;-70
2023/02/16 03:52:09;;;;;;;53.07;34.70;;;2.50;99.90;;;;;;5053708;28;20677;-71
2023/02/16 03:54:38;;;;;;;41.17;33.33;;;2.60;99.90;;;;;;5059889;28;20471;-70
2023/02/16 03:57:05;;;;;;;53.70;35.47;;;2.60;99.90;;;;;;5056542;28;20474;-70
2023/02/16 03:59:32;;;;;;;47.93;34.63;;;2.60;99.90;;;;;;5056481;28;20873;-70
2023/02/16 04:02:00;;;;;;;49.83;35.20;;;2.60;99.90;;;;;;5059770;28;20471;-70
2023/02/16 04:04:27;;;;;;;48.83;36.00;;;2.60;99.90;;;;;;5051338;28;20463;-70
2023/02/16 04:06:54;;;;;;;49.37;37.87;;;2.60;99.90;;;;;;5057774;28;20486;-72
2023/02/16 04:09:21;;;;;;;50.70;34.53;;;2.60;99.90;;;;;;5055590;28;20479;-71
2023/02/16 04:14:32;;;;;;;48.90;34.60;;;2.70;99.90;;;;;;5053284;28;20454;-70
2023/02/16 04:17:00;;;;;;;44.83;34.70;;;2.70;99.90;;;;;;5052175;28;20451;-71
2023/02/16 04:19:27;;;;;;;40.33;34.37;;;2.80;99.90;;;;;;5048998;28;21164;-72
2023/02/16 04:21:54;;;;;;;54.00;34.33;;;2.80;99.90;;;;;;5051451;28;20463;-70
2023/02/16 04:24:22;;;;;;;59.67;34.77;;;2.80;99.90;;;;;;5050562;28;20475;-69
2023/02/16 04:26:48;;;;;;;51.93;34.60;;;2.80;99.90;;;;;;5052806;28;20459;-72
2023/02/16 04:29:15;;;;;;;43.13;33.60;;;2.80;99.90;;;;;;5053950;28;20483;-71
2023/02/16 04:31:44;;;;;;;44.70;33.27;;;2.70;99.90;;;;;;5052065;28;20466;-71
2023/02/16 04:34:12;;;;;;;46.27;33.50;;;2.50;99.90;;;;;;5057219;28;20470;-71
2023/02/16 04:36:38;;;;;;;45.93;33.73;;;2.50;99.90;;;;;;5057024;28;20520;-72
2023/02/16 04:39:05;;;;;;;52.47;33.87;;;2.40;99.90;;;;;;5049718;28;20463;-70
2023/02/16 04:41:32;;;;;;;53.87;35.57;;;2.30;99.90;;;;;;5055135;28;20482;-70
2023/02/16 04:43:59;;;;;;;57.63;35.47;;;2.30;99.90;;;;;;5051869;28;20471;-70
2023/02/16 04:46:26;;;;;;;53.77;36.30;;;2.30;99.90;;;;;;5058135;28;20466;-71
2023/02/16 04:48:53;;;;;;;53.53;37.67;;;2.30;99.90;;;;;;5061573;28;20463;-72
2023/02/16 04:51:21;;;;;;;52.17;34.30;;;2.40;99.90;;;;;;5057242;28;20455;-72
2023/02/16 04:53:47;;;;;;;42.63;33.23;;;2.40;99.90;;;;;;5050218;28;20456;-72
2023/02/16 04:56:15;;;;;;;48.43;34.77;;;2.30;99.90;;;;;;5050759;28;21016;-73
2023/02/16 04:58:42;;;;;;;49.07;35.93;;;2.40;99.90;;;;;;5054667;28;20554;-72
2023/02/16 05:01:09;;;;;;;44.77;33.13;;;2.40;99.90;;;;;;5063328;28;20485;-69
2023/02/16 05:03:36;;;;;;;46.47;31.73;;;2.40;99.90;;;;;;5056822;28;20463;-72
2023/02/16 05:06:02;;;;;;;45.00;33.77;;;2.20;99.90;;;;;;5050585;28;21074;-72
2023/02/16 05:08:30;;;;;;;42.77;34.77;;;2.20;99.90;;;;;;5053793;28;20482;-71
2023/02/16 05:16:26;;;;;;;58.47;33.90;;;2.40;99.90;;;;;;5053326;28;20513;-71
2023/02/16 05:18:53;;;;;;;44.90;32.73;;;2.50;99.90;;;;;;5060171;28;20458;-70
2023/02/16 05:21:32;;;;;;;55.00;34.70;;;2.60;99.90;;;;;;5057942;28;20969;-72
2023/02/16 05:24:01;;;;;;;60.63;37.50;;;2.60;99.90;;;;;;5055428;28;20473;-73
2023/02/16 05:26:29;;;;;;;50.77;34.97;;;2.80;99.90;;;;;;5051891;28;20462;-70
2023/02/16 05:28:57;;;;;;;54.37;36.30;;;2.80;99.90;;;;;;5062073;28;20860;-68
2023/02/16 05:31:25;;;;;;;45.07;33.90;;;2.90;99.90;;;;;;5055599;28;20581;-70
2023/02/16 05:33:51;;;;;;;59.40;35.97;;;2.90;99.90;;;;;;5060240;28;20459;-69
2023/02/16 05:36:19;;;;;;;42.37;34.77;;;2.90;99.90;;;;;;5055001;28;20459;-69
2023/02/16 05:38:46;;;;;;;49.77;35.53;;;2.90;99.90;;;;;;5055998;28;20464;-71
2023/02/16 05:41:22;;;;;;;46.93;35.20;;;2.90;99.90;;;;;;5058225;28;20470;-70
2023/02/16 05:43:50;;;;;;;57.00;32.77;;;3.00;99.90;;;;;;5053395;28;20455;-72
2023/02/16 05:46:17;;;;;;;45.90;33.47;;;3.00;99.90;;;;;;5057686;28;20862;-69
2023/02/16 05:48:44;;;;;;;53.13;32.60;;;3.00;99.90;;;;;;5055361;28;20972;-72
2023/02/16 05:51:10;;;;;;;43.33;33.63;;;3.00;99.90;;;;;;5068626;28;20523;-70
2023/02/16 05:53:38;;;;;;;44.63;34.00;;;3.10;99.90;;;;;;5061184;28;20489;-71
2023/02/16 05:56:05;;;;;;;56.53;36.47;;;3.20;99.90;;;;;;5061062;28;20470;-69
2023/02/16 05:58:33;;;;;;;48.00;35.47;;;3.30;99.90;;;;;;5056878;28;20469;-69
2023/02/16 06:01:00;;;;;;;53.20;36.53;;;3.40;99.90;;;;;;5050123;28;20463;-70
2023/02/16 06:03:27;;;;;;;49.07;33.27;;;3.50;99.90;;;;;;5056728;28;20485;-69
2023/02/16 06:05:55;;;;;;;42.63;32.27;;;3.50;99.90;;;;;;5058354;28;20495;-70
2023/02/16 06:08:22;;;;;;;47.47;33.40;;;3.50;99.90;;;;;;5063391;28;20455;-68
2023/02/16 06:10:50;;;;;;;50.60;34.70;;;3.60;99.90;;;;;;5059321;28;20955;-71
2023/02/16 06:13:17;;;;;;;49.30;33.53;;;3.60;99.90;;;;;;5058793;28;20760;-70
2023/02/16 06:15:47;;;;;;;56.67;35.10;;;3.70;99.90;;;;;;5054165;28;20472;-68
2023/02/16 06:18:14;;;;;;;50.07;36.50;;;3.70;99.90;;;;;;5056467;28;20576;-70
2023/02/16 06:20:43;;;;;;;53.23;34.70;;;3.70;99.90;;;;;;5065313;28;20489;-71
2023/02/16 06:23:12;;;;;;;47.27;32.20;;;3.80;99.90;;;;;;5061519;28;20464;-69
2023/02/16 06:25:41;;;;;;;48.27;35.93;;;3.70;99.90;;;;;;5053979;28;20455;-68
2023/02/16 06:28:08;;;;;;;52.33;34.17;;;3.80;99.90;;;;;;5055407;28;20471;-70
2023/02/16 06:30:35;;;;;;;51.93;32.50;;;3.90;99.90;;;;;;5057539;28;20485;-69
2023/02/16 06:33:04;;;;;;;57.03;32.43;;;3.90;99.90;;;;;;5056253;28;20458;-69
2023/02/16 06:35:31;;;;;;;59.20;33.20;;;3.90;99.90;;;;;;5050419;28;20463;-72
2023/02/16 06:37:58;;;;;;;65.97;34.20;;;3.90;99.90;;;;;;5054512;28;20467;-71
2023/02/16 06:40:25;;;;;;;46.60;32.10;;;3.90;99.90;;;;;;5056354;28;20485;-69
2023/02/16 06:42:52;;;;;;;52.57;32.37;;;3.90;99.90;;;;;;5049316;28;21001;-71
2023/02/16 06:45:19;;;;;;;50.57;33.50;;;3.90;99.90;;;;;;5051504;28;20474;-70
2023/02/16 06:47:46;;;;;;;66.80;34.73;;;4.00;99.90;;;;;;5056670;28;20463;-71
2023/02/16 06:50:14;;;;;;;48.97;32.10;;;4.00;99.90;;;;;;5055353;28;21016;-72
2023/02/16 06:52:41;;;;;;;50.70;31.90;;;4.10;99.90;;;;;;5052508;28;20491;-69
2023/02/16 06:55:08;;;;;;;45.10;30.57;;;4.10;99.90;;;;;;5055266;28;20479;-71
2023/02/16 06:57:35;;;;;;;51.43;33.63;;;4.20;99.90;;;;;;5058119;28;20468;-68
2023/02/16 07:00:04;;;;;;;50.80;31.73;;;4.30;99.90;;;;;;5057328;28;20954;-72
2023/02/16 07:02:31;;;;;;;55.03;32.00;;;4.40;99.90;;;;;;5055051;28;20871;-73
2023/02/16 07:04:58;;;;;;;47.90;31.03;;;4.30;99.90;;;;;;5054982;28;21036;-70
2023/02/16 07:07:26;;;;;;;44.73;31.23;;;4.30;99.90;;;;;;5050484;28;20473;-68
2023/02/16 07:09:53;;;;;;;52.17;32.17;;;4.20;99.90;;;;;;5051305;28;20481;-73
2023/02/16 07:12:20;;;;;;;56.53;33.80;;;4.30;99.90;;;;;;5047785;28;20977;-72
2023/02/16 07:14:47;;;;;;;44.43;32.20;;;4.40;99.90;;;;;;5051039;28;20901;-69
2023/02/16 07:17:14;;;;;;;54.77;31.63;;;4.40;99.90;;;;;;5051283;28;20463;-69
2023/02/16 07:19:42;;;;;;;49.80;32.97;;;4.40;99.90;;;;;;5053981;28;20784;-71
2023/02/16 07:22:09;;;;;;;51.70;32.57;;;4.40;99.90;;;;;;5055960;28;20494;-70
2023/02/16 07:24:37;;;;;;;55.53;31.70;;;4.50;99.90;;;;;;5055837;28;20975;-72
2023/02/16 07:27:04;;;;;;;49.27;32.30;;;4.50;99.90;;;;;;5058372;28;20460;-71
2023/02/16 07:29:31;;;;;;;49.37;31.37;;;4.60;99.90;;;;;;5049327;28;20541;-69
2023/02/16 07:31:58;;;;;;;46.07;31.73;;;4.60;99.90;;;;;;5055298;28;20868;-70
2023/02/16 07:34:25;;;;;;;51.00;32.37;;;4.60;99.90;;;;;;5053184;28;20471;-71
2023/02/16 07:36:52;;;;;;;53.67;35.07;;;4.70;99.90;;;;;;5054057;28;20460;-70
2023/02/16 07:39:19;;;;;;;55.03;33.60;;;4.70;99.90;;;;;;5051916;28;20976;-72
2023/02/16 07:41:48;;;;;;;52.53;33.17;;;4.80;99.90;;;;;;5047490;28;20491;-69
2023/02/16 07:44:14;;;;;;;44.10;31.73;;;4.80;99.90;;;;;;5052037;28;20462;-68
2023/02/16 07:46:41;;;;;;;47.70;32.00;;;4.90;99.90;;;;;;5054745;28;20466;-68
2023/02/16 07:49:08;;;;;;;48.10;31.73;;;4.90;99.90;;;;;;5053855;28;20474;-69
2023/02/16 07:51:34;;;;;;;53.90;32.40;;;5.00;99.90;;;;;;5055478;28;20488;-72
2023/02/16 07:54:01;;;;;;;47.50;33.13;;;5.20;99.90;;;;;;5048338;28;20542;-71
2023/02/16 07:56:30;;;;;;;41.17;31.90;;;5.30;99.90;;;;;;5050973;28;20538;-71
2023/02/16 07:59:01;;;;;;;51.00;31.43;;;5.30;99.90;;;;;;5053265;28;20474;-70
2023/02/16 08:01:29;;;;;;;56.50;34.50;;;5.40;99.90;;;;;;5054247;28;20507;-71
2023/02/16 08:03:56;;;;;;;48.37;33.00;;;5.50;99.90;;;;;;5059052;28;20497;-68
2023/02/16 08:06:23;;;;;;;51.87;34.77;;;5.50;99.90;;;;;;5055331;28;20482;-72
2023/02/16 08:08:50;;;;;;;51.63;33.30;;;5.70;99.90;;;;;;5051023;28;20845;-69
2023/02/16 08:11:19;;;;;;;51.40;34.60;;;5.60;99.90;;;;;;5056617;28;20801;-71
2023/02/16 08:13:46;;;;;;;50.20;33.47;;;5.70;99.90;;;;;;5054919;28;20524;-69
2023/02/16 08:16:16;;;;;;;49.10;33.13;;;5.90;99.90;;;;;;5055830;28;21092;-71
2023/02/16 08:18:44;;;;;;;52.80;32.20;;;6.00;99.90;;;;;;5047509;28;21036;-72
2023/02/16 08:21:13;;;;;;;50.90;35.23;;;6.10;99.90;;;;;;5054756;28;20470;-69
2023/02/16 08:23:42;;;;;;;57.10;34.83;;;6.20;99.90;;;;;;5052341;28;20459;-72
2023/02/16 08:26:10;;;;;;;44.43;31.63;;;6.30;99.90;;;;;;5047001;28;21019;-70
2023/02/16 08:28:38;;;;;;;44.97;33.40;;;6.40;99.90;;;;;;5050895;28;20472;-73
2023/02/16 08:31:05;;;;;;;40.33;33.90;;;6.50;99.90;;;;;;5061592;28;20857;-69
2023/02/16 08:33:35;;;;;;;53.83;33.90;;;6.50;99.90;;;;;;5043466;28;20459;-71
2023/02/16 08:36:02;;;;;;;55.57;34.53;;;6.70;99.90;;;;;;5042822;28;20835;-71
2023/02/16 08:38:31;;;;;;;45.00;32.37;;;6.80;99.90;;;;;;5055898;28;20473;-71
2023/02/16 08:40:58;;;;;;;55.47;32.00;;;7.00;99.90;;;;;;5052610;28;20468;-70
2023/02/16 08:43:26;;;;;;;68.13;32.63;;;7.30;99.90;;;;;;5053077;28;20834;-71
2023/02/16 08:45:54;;;;;;;58.07;32.67;;;7.20;99.90;;;;;;5055328;28;20845;-70
2023/02/16 08:48:23;;;;;;;51.97;33.27;;;7.30;99.90;;;;;;5053017;28;20643;-72
2023/02/16 08:50:53;;;;;;;55.20;34.70;;;7.50;99.90;;;;;;5050847;28;20877;-69
2023/02/16 08:53:20;;;;;;;53.60;37.10;;;7.60;99.90;;;;;;5059273;28;20565;-69
2023/02/16 08:55:52;;;;;;;56.13;36.50;;;7.70;99.90;;;;;;5055462;28;20558;-72
2023/02/16 08:58:19;;;;;;;43.20;33.00;;;8.00;99.90;;;;;;5049565;28;20543;-70
2023/02/16 09:00:46;;;;;;;46.07;33.80;;;8.10;99.90;;;;;;5065450;28;20960;-73
2023/02/16 09:03:15;;;;;;;50.80;31.90;;;8.20;99.90;;;;;;5057954;28;20468;-72
2023/02/16 09:05:42;;;;;;;41.07;31.73;;;8.40;99.90;;;;;;5056558;28;20491;-73
2023/02/16 09:08:10;;;;;;;35.50;31.67;;;8.50;99.90;;;;;;5060353;28;20462;-71
2023/02/16 09:10:36;;;;;;;45.73;33.50;;;8.60;99.90;;;;;;5061186;28;20498;-71
2023/02/16 09:13:04;;;;;;;44.80;33.43;;;8.90;99.90;;;;;;5063546;28;20882;-73
2023/02/16 09:15:32;;;;;;;42.60;31.53;;;9.00;99.90;;;;;;5066810;28;20703;-71
2023/02/16 09:17:59;;;;;;;45.33;32.27;;;9.00;99.90;;;;;;5062557;28;20799;-72
2023/02/16 09:20:27;;;;;;;39.27;32.50;;;9.00;99.90;;;;;;5053689;28;20498;-72
2023/02/16 09:22:55;;;;;;;39.97;31.90;;;9.10;99.90;;;;;;5059788;28;20783;-69
2023/02/16 09:25:24;;;;;;;51.13;32.87;;;9.00;99.90;;;;;;5058317;28;20467;-70
2023/02/16 09:27:52;;;;;;;44.43;31.63;;;9.10;99.90;;;;;;5061210;28;20463;-73
2023/02/16 09:30:19;;;;;;;47.97;32.60;;;9.30;99.90;;;;;;5068467;28;20447;-72
2023/02/16 09:32:46;;;;;;;56.63;33.40;;;9.60;99.90;;;;;;5053635;28;20462;-74
2023/02/16 09:35:13;;;;;;;47.10;31.30;;;9.80;99.90;;;;;;5057668;28;20470;-71
2023/02/16 09:37:40;;;;;;;42.93;32.93;;;10.00;99.90;;;;;;5063491;28;20489;-70
2023/02/16 09:40:10;;;;;;;86.80;32.93;;;10.30;99.90;;;;;;5058566;28;20485;-71
2023/02/16 09:42:51;;;;;;;44.40;30.77;;;10.40;99.90;;;;;;5055827;28;20499;-71
2023/02/16 09:45:20;;;;;;;45.23;30.97;;;10.40;99.90;;;;;;5062599;28;20460;-73
2023/02/16 09:47:49;;;;;;;45.07;32.27;;;10.40;99.90;;;;;;5061623;28;20498;-71
2023/02/16 09:50:19;;;;;;;38.47;30.43;;;10.50;99.90;;;;;;5061542;28;20529;-71
2023/02/16 09:52:53;;;;;;;60.10;31.50;;;10.50;99.90;;;;;;5060781;28;20506;-71
2023/02/16 09:55:23;;;;;;;41.37;32.60;;;10.70;99.90;;;;;;5052828;28;20470;-75
2023/02/16 09:58:02;;;;;;;44.13;32.77;;;10.60;99.90;;;;;;5055203;28;20474;-72
2023/02/16 10:00:48;;;;;;;37.90;32.80;;;10.60;99.90;;;;;;5062546;28;20523;-70
2023/02/16 10:03:46;;;;;;;40.80;31.43;;;10.60;99.90;;;;;;5060733;28;20468;-72
2023/02/16 10:06:29;;;;;;;37.37;33.53;;;10.60;99.90;;;;;;5057928;28;20870;-70
2023/02/16 10:08:59;;;;;;;41.80;30.70;;;10.70;99.90;;;;;;5056047;28;21467;-72
2023/02/16 10:11:40;;;;;;;34.90;31.00;;;10.80;99.90;;;;;;5061253;28;20992;-69
2023/02/16 10:14:23;;;;;;;35.03;31.40;;;10.80;99.90;;;;;;5062843;28;20459;-72
2023/02/16 10:16:55;;;;;;;38.20;31.50;;;10.90;99.90;;;;;;5070256;28;20469;-73
2023/02/16 10:19:28;;;;;;;38.53;31.27;;;10.80;99.90;;;;;;5056948;28;20458;-74
2023/02/16 10:21:59;;;;;;;38.60;31.20;;;10.90;99.90;;;;;;5053791;28;20467;-72
2023/02/16 10:24:30;;;;;;;40.83;30.37;;;11.10;99.90;;;;;;5051364;28;20559;-74
2023/02/16 10:27:03;;;;;;;35.77;31.30;;;11.00;99.90;;;;;;5054531;28;20824;-70
2023/02/16 10:29:31;;;;;;;35.63;31.50;;;11.10;99.90;;;;;;5046745;28;20458;-72
2023/02/16 10:32:10;;;;;;;43.60;30.67;;;11.00;99.90;;;;;;5062110;28;20482;-73
2023/02/16 10:34:48;;;;;;;33.00;29.57;;;10.90;99.90;;;;;;5063472;28;20458;-72
2023/02/16 10:37:33;;;;;;;33.47;29.97;;;10.90;99.90;;;;;;5060989;28;20542;-72
2023/02/16 10:40:16;;;;;;;34.83;30.77;;;10.90;99.90;;;;;;5057727;28;20840;-70
2023/02/16 10:42:50;;;;;;;33.53;29.70;;;10.90;99.90;;;;;;5050366;28;20488;-72
2023/02/16 10:45:25;;;;;;;34.43;31.03;;;10.80;99.90;;;;;;5054597;28;20454;-70
2023/02/16 10:47:52;;;;;;;32.20;28.80;;;10.80;99.90;;;;;;5058784;28;20513;-69
2023/02/16 10:50:24;;;;;;;33.20;30.00;;;11.00;99.90;;;;;;5059654;28;20536;-71
2023/02/16 10:52:56;;;;;;;33.23;30.03;;;11.10;99.90;;;;;;5062867;28;21063;-71
2023/02/16 10:55:22;;;;;;;37.50;29.30;;;11.20;99.90;;;;;;5053562;28;20464;-72
2023/02/16 10:57:54;;;;;;;34.13;30.77;;;11.10;99.90;;;;;;5057778;28;20823;-71
2023/02/16 11:00:33;;;;;;;35.70;32.00;;;11.10;99.90;;;;;;5057774;28;20468;-71
2023/02/16 11:03:03;;;;;;;33.80;29.47;;;10.90;99.90;;;;;;5057483;28;20966;-71
2023/02/16 11:05:36;;;;;;;40.47;32.90;;;10.80;99.90;;;;;;5049085;28;21068;-71
2023/02/16 11:08:07;;;;;;;38.97;34.50;;;10.80;99.90;;;;;;5056374;28;20843;-70
2023/02/16 11:10:47;;;;;;;38.93;34.37;;;11.00;99.90;;;;;;5065955;28;20459;-72
2023/02/16 11:13:28;;;;;;;39.03;31.70;;;11.00;99.90;;;;;;5063097;28;20882;-71
2023/02/16 11:15:58;;;;;;;41.20;31.07;;;10.90;99.90;;;;;;5057394;28;20466;-71
2023/02/16 11:18:33;;;;;;;33.00;29.40;;;11.00;99.90;;;;;;5057292;28;20469;-72
2023/02/16 11:21:03;;;;;;;37.37;30.73;;;10.80;99.90;;;;;;5058635;28;20840;-71
2023/02/16 11:23:32;;;;;;;36.20;29.57;;;10.90;99.90;;;;;;5057688;28;20499;-70
2023/02/16 11:26:02;;;;;;;32.60;29.10;;;11.00;99.90;;;;;;5053156;28;20455;-72
2023/02/16 11:28:34;;;;;;;34.13;30.10;;;11.00;99.90;;;;;;5064288;28;20463;-73
2023/02/16 11:31:17;;;;;;;34.70;31.10;;;10.90;99.90;;;;;;5060266;28;20463;-73
2023/02/16 11:33:56;;;;;;;32.73;29.40;;;10.80;99.90;;;;;;5052897;28;20468;-68
2023/02/16 11:36:32;;;;;;;35.50;29.53;;;10.70;99.90;;;;;;5061626;28;20556;-72
2023/02/16 11:39:02;;;;;;;31.50;28.27;;;10.70;99.90;;;;;;5064049;28;20463;-71
2023/02/16 11:41:32;;;;;;;36.47;29.23;;;10.80;99.90;;;;;;5046048;28;20994;-70
2023/02/16 11:44:00;;;;;;;31.83;28.63;;;10.90;99.90;;;;;;5033860;28;20560;-70
2023/02/16 11:46:38;;;;;;;33.77;30.37;;;10.90;99.90;;;;;;5042600;28;20499;-71
2023/02/16 11:49:21;;;;;;;35.23;31.57;;;11.00;99.90;;;;;;5032117;28;20491;-70
2023/02/16 11:51:47;;;;;;;34.40;30.53;;;11.30;99.90;;;;;;5034148;28;21078;-70
2023/02/16 11:54:18;;;;;;;33.23;29.73;;;11.30;99.90;;;;;;5039033;28;20525;-70
2023/02/16 11:57:01;;;;;;;33.00;29.57;;;11.30;99.90;;;;;;5036517;28;20570;-70
2023/02/16 11:59:32;;;;;;;33.43;29.83;;;11.40;99.90;;;;;;5034381;28;20583;-72
2023/02/16 12:02:33;;;;;;;35.70;31.07;;;11.60;99.90;;;;;;5031901;28;20542;-70
2023/02/16 12:05:16;;;;;;;33.80;30.40;;;11.30;99.90;;;;;;5017434;28;21008;-74
2023/02/16 12:07:53;;;;;;;34.60;30.70;;;11.50;99.90;;;;;;5034368;28;20463;-70
2023/02/16 12:10:28;;;;;;;34.67;30.00;;;11.80;99.90;;;;;;5041484;28;20979;-71
2023/02/16 12:13:01;;;;;;;39.87;32.60;;;11.80;99.90;;;;;;5038077;28;20885;-70
2023/02/16 12:15:36;;;;;;;34.00;30.47;;;11.50;99.90;;;;;;5033163;28;20513;-70
2023/02/16 12:18:18;;;;;;;36.07;32.47;;;11.70;99.90;;;;;;5039462;28;20554;-72
2023/02/16 12:20:53;;;;;;;38.77;32.53;;;11.80;99.90;;;;;;5037767;28;20483;-75
2023/02/16 12:23:37;;;;;;;37.13;32.23;;;11.50;99.90;;;;;;5037241;28;20475;-70
2023/02/16 12:26:25;;;;;;;35.93;32.03;;;11.40;99.90;;;;;;5029441;28;20463;-70
2023/02/16 12:29:00;;;;;;;33.70;30.30;;;11.40;99.90;;;;;;5033712;28;20463;-70
2023/02/16 12:31:34;;;;;;;35.40;31.53;;;11.40;99.90;;;;;;5031604;28;20468;-71
2023/02/16 12:34:21;;;;;;;44.70;40.00;;;11.30;99.90;;;;;;5033996;28;21401;-68
2023/02/16 12:36:57;;;;;;;43.87;39.17;;;11.10;99.90;;;;;;5040962;28;20464;-70
2023/02/16 12:39:35;;;;;;;44.73;38.50;;;11.20;99.90;;;;;;5038862;28;20467;-68
2023/02/16 12:42:19;;;;;;;44.90;39.07;;;11.20;99.90;;;;;;5044884;28;21039;-70
2023/02/16 12:44:50;;;;;;;44.53;37.40;;;11.20;99.90;;;;;;5053047;28;20455;-70
2023/02/16 12:47:21;;;;;;;42.00;37.00;;;11.40;99.90;;;;;;5052902;28;20462;-68
2023/02/16 12:49:53;;;;;;;43.43;37.27;;;11.50;99.90;;;;;;5051467;28;20474;-72
2023/02/16 12:52:32;;;;;;;38.37;34.17;;;11.70;99.90;;;;;;5051256;28;20487;-72
2023/02/16 12:55:11;;;;;;;37.93;33.20;;;11.70;99.90;;;;;;5055864;28;20455;-70
2023/02/16 12:57:46;;;;;;;40.47;32.00;;;11.80;99.90;;;;;;5063534;28;20996;-70
2023/02/16 13:00:19;;;;;;;38.63;34.10;;;12.00;99.90;;;;;;5050795;28;20476;-70
2023/02/16 13:02:50;;;;;;;46.10;33.60;;;12.30;99.90;;;;;;5053946;28;20471;-72
2023/02/16 13:05:23;;;;;;;36.43;32.50;;;12.50;99.90;;;;;;5049931;28;20555;-71
2023/02/16 13:07:56;;;;;;;35.47;31.90;;;12.80;99.90;;;;;;5048832;28;20897;-75
2023/02/16 13:10:27;;;;;;;35.03;31.37;;;12.90;99.90;;;;;;5052439;28;20462;-71
2023/02/16 13:13:00;;;;;;;36.57;31.87;;;13.10;99.90;;;;;;5051003;28;20498;-73
2023/02/16 13:15:36;;;;;;;35.60;31.80;;;13.00;99.90;;;;;;5066091;28;20473;-69
2023/02/16 13:18:06;;;;;;;40.37;33.07;;;13.30;99.90;;;;;;5058129;28;20477;-70
2023/02/16 13:20:39;;;;;;;36.83;33.00;;;13.30;99.90;;;;;;5054983;28;20829;-75
2023/02/16 13:23:29;;;;;;;35.53;30.40;;;13.30;99.90;;;;;;5055408;28;20544;-75
2023/02/16 13:26:09;;;;;;;33.23;29.97;;;13.20;99.90;;;;;;5049878;28;20486;-74
2023/02/16 13:28:53;;;;;;;35.03;31.60;;;12.90;99.90;;;;;;5053028;28;20464;-71
2023/02/16 13:31:34;;;;;;;34.63;31.10;;;13.10;99.90;;;;;;5044686;28;20853;-70